Time;durP1;ratioP1;P1;durP2;ratioP2;P2;SDS_P1;SDS_P2;PMS_P1;PMS_P2;Temp;Humidity;BMP_temperature;BMP_pressure;BME280_temperature;BME280_humidity;BME280_pressure;Samples;Min_cycle;Max_cycle;Signal;HPM_P1;HPM_P2
2022/05/23 00:00:05;;;;;;;0.63;0.40;;;12.80;99.90;;;;;;4774858;30;20051;-89
2022/05/23 00:02:31;;;;;;;1.20;0.50;;;12.70;99.90;;;;;;4774197;30;20062;-89
2022/05/23 00:04:56;;;;;;;2.30;0.52;;;12.80;99.90;;;;;;4780938;29;20059;-90
2022/05/23 00:07:35;;;;;;;1.13;0.50;;;12.70;99.90;;;;;;4774259;30;20142;-90
2022/05/23 00:10:02;;;;;;;2.00;0.60;;;12.70;99.90;;;;;;4791582;29;20223;-90
2022/05/23 00:12:28;;;;;;;2.65;0.60;;;13.20;99.90;;;;;;4778398;29;20398;-90
2022/05/23 00:14:54;;;;;;;1.30;0.60;;;13.10;99.90;;;;;;4797105;29;20051;-90
2022/05/23 00:17:20;;;;;;;1.27;0.60;;;12.60;99.90;;;;;;4790210;29;21084;-89
2022/05/23 00:19:47;;;;;;;0.60;0.50;;;12.60;99.90;;;;;;4789830;30;20148;-89
2022/05/23 00:22:14;;;;;;;1.23;0.60;;;12.50;99.90;;;;;;4758572;29;20138;-89
2022/05/23 00:24:44;;;;;;;1.58;0.65;;;12.40;99.90;;;;;;4797177;29;20048;-88
2022/05/23 00:27:12;;;;;;;1.65;1.13;;;12.40;99.90;;;;;;4789500;30;20155;-88
2022/05/23 00:29:38;;;;;;;1.35;0.63;;;12.40;99.90;;;;;;4780532;30;20135;-90
2022/05/23 00:35:18;;;;;;;1.15;0.70;;;12.30;99.90;;;;;;4754557;29;20449;-89
2022/05/23 00:37:44;;;;;;;1.35;0.70;;;12.30;99.90;;;;;;4754996;30;20060;-88
2022/05/23 00:40:30;;;;;;;2.08;0.60;;;12.20;99.90;;;;;;4769298;30;20444;-87
2022/05/23 00:43:16;;;;;;;2.55;0.77;;;12.30;99.90;;;;;;4713774;30;20057;-90
2022/05/23 00:46:00;;;;;;;1.75;0.75;;;12.50;99.90;;;;;;4701866;30;20187;-88
2022/05/23 00:48:27;;;;;;;1.38;0.80;;;12.10;99.90;;;;;;4701762;30;20057;-89
2022/05/23 00:51:02;;;;;;;2.42;1.10;;;12.10;99.90;;;;;;4713320;30;20057;-90
2022/05/23 00:53:39;;;;;;;2.45;0.70;;;12.40;99.90;;;;;;4713952;30;20144;-90
2022/05/23 00:56:09;;;;;;;2.75;0.90;;;12.00;99.90;;;;;;4702396;30;20069;-89
2022/05/23 00:58:45;;;;;;;1.42;0.80;;;12.00;99.90;;;;;;4714004;30;20073;-89
2022/05/23 01:01:16;;;;;;;1.17;0.73;;;12.20;99.90;;;;;;4701902;30;20152;-89
2022/05/23 01:03:42;;;;;;;1.45;0.80;;;11.90;99.90;;;;;;4703596;30;20385;-90
2022/05/23 01:06:08;;;;;;;0.90;0.80;;;12.00;99.90;;;;;;4704216;30;20064;-90
2022/05/23 01:08:39;;;;;;;1.67;0.68;;;11.80;99.90;;;;;;4717396;30;20063;-90
2022/05/23 01:11:07;;;;;;;0.88;0.70;;;11.80;99.90;;;;;;4715022;30;20057;-90
2022/05/23 01:13:32;;;;;;;2.20;0.80;;;11.70;99.90;;;;;;4719789;30;20068;-90
2022/05/23 01:15:58;;;;;;;1.05;0.60;;;12.10;99.90;;;;;;4704621;30;20072;-89
2022/05/23 01:18:24;;;;;;;1.15;0.90;;;11.60;99.90;;;;;;4703340;30;20063;-91
2022/05/23 01:20:55;;;;;;;1.00;0.60;;;12.10;99.90;;;;;;4772026;30;20127;-85
2022/05/23 01:23:32;;;;;;;0.82;0.68;;;11.60;99.90;;;;;;4779506;30;20062;-89
2022/05/23 01:25:58;;;;;;;2.10;0.70;;;11.60;99.90;;;;;;4779349;29;20092;-89
2022/05/23 01:28:23;;;;;;;2.83;0.82;;;11.40;99.90;;;;;;4773178;30;20059;-91
2022/05/23 01:30:50;;;;;;;0.75;0.50;;;11.50;99.90;;;;;;4772505;29;20090;-90
2022/05/23 01:33:16;;;;;;;0.90;0.70;;;11.50;99.90;;;;;;4787711;29;20071;-91
2022/05/23 01:35:42;;;;;;;1.40;0.73;;;11.50;99.90;;;;;;4789009;29;20130;-89
2022/05/23 01:38:09;;;;;;;2.60;0.75;;;11.50;99.90;;;;;;4795735;29;20574;-88
2022/05/23 01:40:35;;;;;;;0.50;0.50;;;11.40;99.90;;;;;;4775629;29;20126;-90
2022/05/23 01:43:01;;;;;;;1.23;0.70;;;11.50;99.90;;;;;;4794104;29;20051;-90
2022/05/23 01:45:32;;;;;;;2.30;0.70;;;12.00;99.90;;;;;;4772300;30;20120;-90
2022/05/23 01:47:59;;;;;;;2.95;0.80;;;11.40;99.90;;;;;;4772620;30;20062;-90
2022/05/23 01:50:25;;;;;;;1.10;0.70;;;11.40;99.90;;;;;;4772085;30;20074;-88
2022/05/23 01:52:52;;;;;;;0.85;0.63;;;11.50;99.90;;;;;;4788911;29;20047;-89
2022/05/23 01:55:18;;;;;;;1.58;0.77;;;11.60;99.90;;;;;;4772003;30;20059;-86
2022/05/23 01:57:44;;;;;;;0.80;0.57;;;11.30;99.90;;;;;;4772173;30;20124;-87
2022/05/23 02:02:56;;;;;;;2.42;0.70;;;11.30;99.90;;;;;;4795732;29;20166;-87
2022/05/23 02:05:25;;;;;;;1.98;0.63;;;11.30;99.90;;;;;;4772022;30;20116;-86
2022/05/23 02:07:52;;;;;;;0.90;0.45;;;11.30;99.90;;;;;;4771836;30;20055;-86
2022/05/23 02:10:18;;;;;;;2.97;1.08;;;11.70;99.90;;;;;;4772025;30;20462;-90
2022/05/23 02:12:44;;;;;;;1.17;0.60;;;11.40;99.90;;;;;;4787528;29;20071;-89
2022/05/23 02:15:10;;;;;;;1.42;0.60;;;11.80;99.90;;;;;;4787989;30;20055;-90
2022/05/23 02:17:36;;;;;;;1.92;0.63;;;11.40;99.90;;;;;;4788080;30;20059;-88
2022/05/23 02:20:02;;;;;;;1.23;0.40;;;11.40;99.90;;;;;;4787580;30;20429;-90
2022/05/23 02:22:28;;;;;;;2.88;0.63;;;11.40;99.90;;;;;;4772163;30;20062;-88
2022/05/23 02:24:54;;;;;;;1.95;0.60;;;11.50;99.90;;;;;;4771399;30;20146;-86
2022/05/23 02:27:20;;;;;;;1.75;0.50;;;11.50;99.90;;;;;;4779489;30;20130;-86
2022/05/23 02:29:45;;;;;;;2.20;0.70;;;11.50;99.90;;;;;;4787637;30;20080;-87
2022/05/23 02:32:11;;;;;;;1.60;0.60;;;11.60;99.90;;;;;;4771686;29;20196;-88
2022/05/23 02:34:37;;;;;;;1.98;0.57;;;11.60;99.90;;;;;;4794359;29;20051;-86
2022/05/23 02:37:03;;;;;;;0.98;0.52;;;11.60;99.90;;;;;;4787645;30;20035;-85
2022/05/23 02:39:29;;;;;;;1.17;0.65;;;11.60;99.90;;;;;;4786986;30;20059;-85
2022/05/23 02:41:55;;;;;;;0.77;0.50;;;11.80;99.90;;;;;;4771441;30;20413;-87
2022/05/23 02:44:21;;;;;;;1.08;0.70;;;11.60;99.90;;;;;;4771451;30;20059;-85
2022/05/23 02:46:47;;;;;;;0.85;0.40;;;11.60;99.90;;;;;;4771453;30;20059;-86
2022/05/23 02:49:13;;;;;;;0.98;0.50;;;11.60;99.90;;;;;;4787391;30;20144;-85
2022/05/23 02:51:39;;;;;;;0.98;0.40;;;12.00;99.90;;;;;;4771221;30;20138;-86
2022/05/23 02:54:06;;;;;;;0.88;0.45;;;11.60;99.90;;;;;;4787846;29;20484;-86
2022/05/23 02:56:32;;;;;;;1.20;0.50;;;11.60;99.90;;;;;;4787077;30;20051;-86
2022/05/23 02:58:57;;;;;;;1.27;0.57;;;11.60;99.90;;;;;;4787244;30;20497;-85
2022/05/23 03:01:23;;;;;;;2.33;0.60;;;12.10;99.90;;;;;;4771046;30;20061;-86
2022/05/23 03:03:49;;;;;;;0.90;0.50;;;11.70;99.90;;;;;;4787584;29;20066;-85
2022/05/23 03:06:15;;;;;;;1.40;0.70;;;11.60;99.90;;;;;;4771192;30;20063;-89
2022/05/23 03:08:41;;;;;;;1.63;0.60;;;11.50;99.90;;;;;;4794540;29;20105;-86
2022/05/23 03:11:10;;;;;;;1.75;0.60;;;12.00;99.90;;;;;;4787460;30;20047;-88
2022/05/23 03:13:37;;;;;;;1.60;0.60;;;11.60;99.90;;;;;;4787947;29;20409;-89
2022/05/23 03:16:11;;;;;;;1.95;0.60;;;11.50;99.90;;;;;;4770754;30;20490;-90
2022/05/23 03:18:37;;;;;;;1.70;0.50;;;11.50;99.90;;;;;;4787266;29;20413;-85
2022/05/23 03:21:06;;;;;;;0.90;0.57;;;11.50;99.90;;;;;;4787201;29;20051;-86
2022/05/23 03:29:05;;;;;;;1.08;0.50;;;11.60;99.90;;;;;;4786870;29;20055;-87
2022/05/23 03:31:31;;;;;;;0.77;0.50;;;11.50;99.90;;;;;;4777186;30;20471;-86
2022/05/23 03:33:57;;;;;;;1.70;0.50;;;11.60;99.90;;;;;;4787309;29;20519;-87
2022/05/23 03:36:23;;;;;;;2.13;0.60;;;11.50;99.90;;;;;;4786745;30;20067;-86
2022/05/23 03:38:49;;;;;;;1.25;0.50;;;11.50;99.90;;;;;;4787280;30;20090;-86
2022/05/23 03:41:15;;;;;;;1.02;0.50;;;11.60;99.90;;;;;;4792684;29;20086;-87
2022/05/23 03:43:40;;;;;;;1.48;0.60;;;12.10;99.90;;;;;;4765284;29;20066;-86
2022/05/23 03:46:07;;;;;;;1.02;0.50;;;11.90;99.90;;;;;;4786964;30;20052;-86
2022/05/23 03:48:33;;;;;;;1.55;0.60;;;11.60;99.90;;;;;;4793553;29;20055;-87
2022/05/23 03:51:00;;;;;;;0.88;0.40;;;11.90;99.90;;;;;;4792054;29;20073;-86
2022/05/23 03:53:26;;;;;;;1.05;0.50;;;11.50;99.90;;;;;;4788152;29;20146;-86
2022/05/23 03:55:52;;;;;;;1.40;0.60;;;11.50;99.90;;;;;;4770920;30;20051;-87
2022/05/23 03:58:18;;;;;;;2.13;0.45;;;11.50;99.90;;;;;;4786329;30;20142;-86
2022/05/23 04:00:49;;;;;;;2.17;0.70;;;11.70;99.90;;;;;;4776797;29;20138;-86
2022/05/23 04:03:18;;;;;;;2.10;0.60;;;11.50;99.90;;;;;;4770539;30;20146;-86
2022/05/23 04:05:44;;;;;;;2.00;0.50;;;12.30;99.90;;;;;;4771154;29;20060;-87
2022/05/23 04:08:10;;;;;;;1.45;0.47;;;12.00;99.90;;;;;;4770720;30;20055;-87
2022/05/23 04:10:37;;;;;;;1.75;0.50;;;12.20;99.90;;;;;;4786260;30;20062;-87
2022/05/23 04:13:03;;;;;;;1.15;0.47;;;11.60;99.90;;;;;;4770501;30;20063;-86
2022/05/23 04:15:30;;;;;;;2.55;0.55;;;11.70;99.90;;;;;;4770852;30;20074;-86
2022/05/23 04:17:55;;;;;;;1.00;0.50;;;11.70;99.90;;;;;;4770674;30;20065;-86
2022/05/23 04:20:22;;;;;;;2.10;0.52;;;11.80;99.90;;;;;;4770494;30;20413;-88
2022/05/23 04:22:48;;;;;;;0.80;0.60;;;12.50;99.90;;;;;;4769510;30;20063;-87
2022/05/23 04:25:14;;;;;;;2.35;0.55;;;11.90;99.90;;;;;;4772683;30;20063;-86
2022/05/23 04:27:40;;;;;;;0.30;0.30;;;11.90;99.90;;;;;;4786361;29;20073;-88
2022/05/23 04:30:09;;;;;;;1.08;0.60;;;12.00;99.90;;;;;;4774024;30;20058;-90
2022/05/23 04:35:21;;;;;;;1.65;0.65;;;12.00;99.90;;;;;;4786629;29;20059;-88
2022/05/23 04:37:49;;;;;;;1.48;0.52;;;12.40;99.90;;;;;;4774099;29;20062;-88
2022/05/23 04:40:22;;;;;;;1.00;0.55;;;12.10;99.90;;;;;;4778897;30;20059;-89
2022/05/23 04:42:48;;;;;;;0.90;0.40;;;12.10;99.90;;;;;;4791890;29;20480;-89
2022/05/23 04:45:15;;;;;;;1.33;0.50;;;12.10;99.90;;;;;;4792712;29;20055;-87
2022/05/23 04:50:25;;;;;;;2.08;0.80;;;12.10;99.90;;;;;;4791209;30;20600;-88
2022/05/23 04:52:52;;;;;;;2.45;0.70;;;12.00;99.90;;;;;;4777554;30;20097;-88
2022/05/23 04:55:19;;;;;;;1.00;0.70;;;12.30;99.90;;;;;;4791137;29;20097;-86
2022/05/23 04:57:46;;;;;;;3.05;0.85;;;12.20;99.90;;;;;;4780529;30;20070;-86
2022/05/23 05:00:14;;;;;;;3.35;0.70;;;12.30;99.90;;;;;;4789687;29;20063;-87
2022/05/23 05:02:40;;;;;;;2.00;0.68;;;12.10;99.90;;;;;;4775686;30;20051;-87
2022/05/23 05:05:07;;;;;;;2.97;0.93;;;12.50;99.90;;;;;;4775316;29;20065;-87
2022/05/23 05:07:33;;;;;;;1.65;0.60;;;12.60;99.90;;;;;;4783504;29;20058;-87
2022/05/23 05:09:59;;;;;;;1.33;0.65;;;12.80;99.90;;;;;;4790574;29;20422;-85
2022/05/23 05:12:24;;;;;;;1.67;1.17;;;12.90;99.90;;;;;;4788778;29;20059;-88
2022/05/23 05:14:51;;;;;;;2.00;0.80;;;13.00;99.90;;;;;;4789682;29;20124;-89
2022/05/23 05:17:17;;;;;;;4.25;1.00;;;13.10;99.90;;;;;;4785072;30;20088;-87
2022/05/23 05:19:43;;;;;;;1.38;0.63;;;13.30;99.90;;;;;;4790057;29;20126;-87
2022/05/23 05:22:09;;;;;;;4.15;1.50;;;13.40;99.90;;;;;;4795617;29;20058;-88
2022/05/23 05:24:35;;;;;;;1.95;0.90;;;13.50;99.90;;;;;;4789589;29;20058;-90
2022/05/23 05:27:01;;;;;;;1.20;0.70;;;13.60;99.90;;;;;;4788803;30;20066;-84
2022/05/23 05:29:31;;;;;;;2.22;0.90;;;13.70;99.90;;;;;;4775139;30;20070;-83
2022/05/23 05:32:03;;;;;;;1.48;0.68;;;13.80;99.90;;;;;;4775477;30;20063;-86
2022/05/23 05:34:35;;;;;;;1.85;0.70;;;13.90;99.90;;;;;;4781205;29;20112;-83
2022/05/23 05:37:09;;;;;;;2.10;0.70;;;13.90;99.90;;;;;;4793358;29;20047;-81
2022/05/23 05:39:36;;;;;;;2.83;0.90;;;14.10;99.90;;;;;;4798729;29;20420;-81
2022/05/23 05:42:09;;;;;;;2.55;1.02;;;14.10;99.90;;;;;;4794922;29;20090;-83
2022/05/23 05:44:39;;;;;;;3.03;1.00;;;14.10;99.90;;;;;;4779404;30;20562;-83
2022/05/23 05:47:08;;;;;;;1.00;0.70;;;14.10;99.90;;;;;;4789545;30;20513;-81
2022/05/23 05:49:37;;;;;;;4.05;1.20;;;14.20;99.90;;;;;;4788956;30;20173;-83
2022/05/23 05:52:05;;;;;;;3.17;1.55;;;14.30;99.90;;;;;;4789744;29;20119;-85
2022/05/23 05:54:32;;;;;;;3.35;1.50;;;14.30;99.90;;;;;;4773118;30;20151;-84
2022/05/23 05:57:01;;;;;;;3.15;1.17;;;14.30;99.90;;;;;;4772843;30;20057;-83
2022/05/23 05:59:27;;;;;;;1.55;0.98;;;14.30;99.90;;;;;;4789926;29;20047;-82
2022/05/23 06:01:53;;;;;;;2.13;1.13;;;14.30;99.90;;;;;;4773183;30;20063;-87
2022/05/23 06:04:19;;;;;;;1.85;0.70;;;14.40;99.90;;;;;;4772372;30;20123;-84
2022/05/23 06:12:13;;;;;;;4.35;1.00;;;14.80;99.90;;;;;;4791279;29;20215;-85
2022/05/23 06:14:38;;;;;;;1.70;1.13;;;14.80;99.90;;;;;;4793917;29;20152;-85
2022/05/23 06:17:08;;;;;;;2.05;1.20;;;14.90;99.90;;;;;;4780186;30;20075;-83
2022/05/23 06:19:39;;;;;;;2.97;1.00;;;15.10;99.90;;;;;;4791081;30;20047;-84
2022/05/23 06:22:06;;;;;;;3.85;1.40;;;15.20;99.90;;;;;;4775260;30;20418;-86
2022/05/23 06:24:31;;;;;;;4.10;1.20;;;15.30;99.90;;;;;;4789238;29;20059;-84
2022/05/23 06:26:57;;;;;;;1.10;0.90;;;15.30;99.90;;;;;;4794626;29;20057;-83
2022/05/23 06:29:24;;;;;;;2.47;1.13;;;15.40;99.90;;;;;;4772935;30;20066;-84
2022/05/23 06:31:49;;;;;;;2.83;1.33;;;15.40;99.90;;;;;;4780338;30;20482;-84
2022/05/23 06:34:15;;;;;;;2.33;1.23;;;15.50;99.90;;;;;;4788119;30;20137;-84
2022/05/23 06:36:41;;;;;;;2.25;1.80;;;15.60;99.90;;;;;;4787747;30;20055;-86
2022/05/23 06:39:07;;;;;;;2.05;1.40;;;15.70;99.90;;;;;;4774376;30;20134;-89
2022/05/23 06:41:32;;;;;;;2.83;1.33;;;15.80;99.90;;;;;;4773400;30;20086;-85
2022/05/23 06:43:58;;;;;;;3.10;1.17;;;15.90;99.90;;;;;;4803493;29;20574;-83
2022/05/23 06:46:24;;;;;;;1.92;1.10;;;16.10;99.90;;;;;;4789223;29;20087;-87
2022/05/23 06:48:50;;;;;;;2.33;1.10;;;16.20;99.90;;;;;;4790648;29;20051;-85
2022/05/23 06:51:16;;;;;;;1.48;1.30;;;16.40;99.90;;;;;;4778757;30;20154;-84
2022/05/23 06:53:42;;;;;;;1.63;1.25;;;16.40;99.90;;;;;;4780816;30;20067;-89
2022/05/23 06:56:08;;;;;;;1.98;1.30;;;16.40;99.90;;;;;;4789074;30;20049;-84
2022/05/23 06:58:35;;;;;;;2.15;1.05;;;16.50;99.90;;;;;;4777462;30;20059;-84
2022/05/23 07:01:00;;;;;;;5.88;1.30;;;16.60;99.90;;;;;;4777152;29;20142;-86
2022/05/23 07:03:26;;;;;;;3.28;1.20;;;16.60;99.90;;;;;;4780487;29;20146;-86
2022/05/23 07:14:06;;;;;;;1.98;1.42;;;17.40;99.90;;;;;;4790488;29;20059;-85
2022/05/23 07:16:33;;;;;;;3.30;1.10;;;17.50;99.90;;;;;;4794851;29;20051;-88
2022/05/23 07:18:59;;;;;;;3.22;1.48;;;17.50;99.90;;;;;;4787889;29;20131;-85
2022/05/23 07:21:24;;;;;;;2.35;1.20;;;17.60;99.90;;;;;;4787913;30;20047;-83
2022/05/23 07:23:58;;;;;;;2.65;1.30;;;17.70;99.90;;;;;;4788121;29;20471;-90
2022/05/23 07:26:24;;;;;;;2.80;1.23;;;17.70;99.90;;;;;;4782721;29;20509;-87
2022/05/23 07:28:50;;;;;;;2.88;1.10;;;17.80;99.90;;;;;;4774808;30;20067;-82
2022/05/23 07:31:17;;;;;;;1.67;0.90;;;17.90;99.90;;;;;;4787864;29;20102;-82
2022/05/23 07:33:44;;;;;;;3.60;1.00;;;18.00;99.90;;;;;;4771392;30;20103;-83
2022/05/23 07:36:11;;;;;;;2.05;0.82;;;18.20;99.90;;;;;;4787558;30;20090;-84
2022/05/23 07:38:37;;;;;;;2.45;1.40;;;18.40;99.90;;;;;;4787919;29;20047;-82
2022/05/23 07:41:04;;;;;;;4.55;1.42;;;18.50;99.90;;;;;;4793535;29;20054;-83
2022/05/23 07:43:35;;;;;;;3.72;1.33;;;18.50;99.90;;;;;;4775030;30;20572;-84
2022/05/23 07:46:09;;;;;;;1.95;1.23;;;18.60;99.90;;;;;;4787098;30;20059;-88
2022/05/23 07:48:46;;;;;;;3.92;1.35;;;18.80;99.90;;;;;;4770580;29;20110;-86
2022/05/23 07:51:14;;;;;;;2.05;1.20;;;18.90;99.90;;;;;;4786118;29;20150;-86
2022/05/23 08:01:53;;;;;;;4.78;1.70;;;19.70;99.90;;;;;;4774611;30;20420;-90
2022/05/23 08:04:19;;;;;;;5.00;1.95;;;19.80;99.90;;;;;;4788014;29;20567;-87
2022/05/23 08:06:46;;;;;;;3.53;1.58;;;19.80;99.90;;;;;;4790108;29;20490;-90
2022/05/23 08:09:12;;;;;;;2.47;1.20;;;19.80;99.90;;;;;;4779851;30;20047;-90
2022/05/23 08:11:44;;;;;;;3.15;1.35;;;19.80;99.90;;;;;;4773573;30;20466;-87
2022/05/23 08:14:11;;;;;;;8.85;2.38;;;19.80;99.90;;;;;;4775779;30;20059;-90
2022/05/23 08:16:37;;;;;;;3.60;1.45;;;19.90;99.90;;;;;;4774334;30;20051;-90
2022/05/23 08:19:05;;;;;;;4.50;1.88;;;20.00;99.90;;;;;;4774264;30;20130;-88
2022/05/23 08:21:31;;;;;;;3.90;1.35;;;20.00;99.90;;;;;;4774801;30;20052;-89
2022/05/23 08:23:57;;;;;;;3.10;1.25;;;20.10;99.90;;;;;;4777799;30;20090;-89
2022/05/23 08:26:25;;;;;;;4.13;1.20;;;20.30;99.90;;;;;;4775065;30;20094;-88
2022/05/23 08:28:52;;;;;;;2.92;1.30;;;20.50;99.90;;;;;;4776385;30;20080;-87
2022/05/23 08:31:18;;;;;;;2.97;1.20;;;20.90;99.90;;;;;;4795483;29;20055;-88
2022/05/23 08:33:44;;;;;;;4.72;2.00;;;20.90;99.90;;;;;;4793598;30;20056;-88
2022/05/23 08:36:10;;;;;;;1.70;1.02;;;21.00;99.90;;;;;;4774468;30;20146;-88
2022/05/23 08:38:37;;;;;;;2.88;1.40;;;21.10;99.90;;;;;;4790619;30;20114;-87
2022/05/23 08:41:16;;;;;;;4.05;1.90;;;21.20;99.90;;;;;;4758575;30;20055;-88
2022/05/23 08:44:29;;;;;;;4.82;1.25;;;21.20;99.90;;;;;;4773546;30;20059;-87
2022/05/23 08:47:12;;;;;;;4.85;1.20;;;21.20;99.90;;;;;;4719198;30;20063;-88
2022/05/23 08:49:55;;;;;;;5.10;1.48;;;21.40;99.90;;;;;;4719598;30;20546;-87
2022/05/23 08:52:47;;;;;;;3.42;1.42;;;21.60;99.90;;;;;;4734333;30;20048;-87
2022/05/23 08:55:30;;;;;;;3.15;1.58;;;21.80;99.90;;;;;;4733292;30;20074;-88
2022/05/23 08:58:02;;;;;;;6.03;1.30;;;22.10;99.90;;;;;;4734030;30;20067;-88
2022/05/23 09:00:53;;;;;;;5.35;1.20;;;22.00;99.90;;;;;;4719862;30;20048;-88
2022/05/23 09:03:39;;;;;;;2.70;1.15;;;22.30;99.90;;;;;;4718796;30;20060;-87
2022/05/23 09:06:15;;;;;;;4.88;1.40;;;22.50;99.90;;;;;;4718370;30;20068;-85
2022/05/23 09:08:51;;;;;;;;;;;22.60;99.90;;;;;;4719884;30;20071;-86
2022/05/23 09:11:32;;;;;;;2.42;1.10;;;22.70;99.90;;;;;;4718731;30;19933;-87
2022/05/23 09:13:59;;;;;;;3.75;1.70;;;22.80;99.90;;;;;;4733736;30;20523;-87
2022/05/23 09:16:32;;;;;;;3.58;1.40;;;23.00;99.90;;;;;;4719473;30;20067;-87
2022/05/23 09:19:02;;;;;;;2.92;1.30;;;23.00;99.90;;;;;;4772591;30;20069;-86
2022/05/23 09:24:16;;;;;;;1.83;1.00;;;23.10;99.90;;;;;;4788898;30;20055;-86
2022/05/23 09:26:44;;;;;;;3.15;1.30;;;23.20;99.90;;;;;;4789452;29;20133;-84
2022/05/23 09:29:09;;;;;;;2.13;1.20;;;23.30;99.90;;;;;;4770751;30;20529;-88
2022/05/23 09:31:55;;;;;;;2.95;1.30;;;23.30;99.90;;;;;;4772838;30;20146;-88
2022/05/23 09:34:43;;;;;;;1.63;1.00;;;23.40;99.90;;;;;;4788929;30;20082;-87
2022/05/23 09:37:20;;;;;;;2.58;1.15;;;23.50;99.90;;;;;;4788401;30;20491;-88
2022/05/23 09:39:58;;;;;;;3.38;1.52;;;23.70;99.90;;;;;;4788482;30;20051;-88
2022/05/23 09:48:13;;;;;;;2.97;0.90;;;24.10;99.90;;;;;;4788132;29;20070;-89
2022/05/23 09:50:44;;;;;;;3.50;1.10;;;24.30;99.90;;;;;;4788271;30;20052;-88
2022/05/23 09:53:27;;;;;;;3.50;1.10;;;24.40;99.90;;;;;;4757424;30;20066;-89
2022/05/23 09:55:53;;;;;;;2.97;1.00;;;24.60;99.90;;;;;;4788727;30;20051;-91
2022/05/23 09:58:27;;;;;;;1.27;0.80;;;24.80;99.90;;;;;;4774824;30;20067;-90
2022/05/23 10:01:09;;;;;;;2.45;1.23;;;24.90;99.90;;;;;;4772596;30;20519;-89
2022/05/23 10:03:37;;;;;;;1.10;0.80;;;25.10;99.90;;;;;;4788252;29;20067;-88
2022/05/23 10:06:11;;;;;;;1.33;0.70;;;25.40;99.70;;;;;;4771861;30;20109;-91
2022/05/23 10:08:41;;;;;;;1.35;0.85;;;25.60;99.20;;;;;;4771524;30;20055;-87
2022/05/23 10:11:28;;;;;;;1.40;0.80;;;25.80;99.90;;;;;;4771827;30;20051;-90
2022/05/23 10:14:06;;;;;;;3.20;0.95;;;26.00;98.00;;;;;;4754439;30;20402;-90
2022/05/23 10:16:47;;;;;;;2.78;1.08;;;26.00;97.40;;;;;;4756520;30;20142;-92
2022/05/23 10:19:25;;;;;;;1.30;0.85;;;26.00;97.70;;;;;;4790765;29;20052;-92
2022/05/23 10:22:09;;;;;;;1.50;0.85;;;26.00;97.30;;;;;;4787431;29;20558;-90
2022/05/23 10:24:41;;;;;;;3.22;1.08;;;25.80;97.40;;;;;;4786584;30;20094;-90
2022/05/23 10:27:12;;;;;;;1.65;0.80;;;25.90;99.10;;;;;;4771815;30;20052;-91
2022/05/23 10:29:57;;;;;;;1.63;0.88;;;25.90;97.80;;;;;;4772479;30;20124;-92
2022/05/23 10:32:32;;;;;;;2.10;0.60;;;25.90;98.30;;;;;;4786181;29;20092;-91
2022/05/23 10:35:24;;;;;;;3.15;1.30;;;25.90;99.00;;;;;;4787959;30;20095;-89
2022/05/23 10:37:53;;;;;;;1.88;0.85;;;25.80;96.50;;;;;;4773024;30;20516;-90
2022/05/23 10:43:19;;;;;;;1.38;0.70;;;25.70;96.70;;;;;;4788654;30;20055;-91
2022/05/23 10:45:59;;;;;;;2.88;0.60;;;25.60;96.90;;;;;;4788610;30;20055;-89
2022/05/23 10:48:57;;;;;;;1.42;0.77;;;25.70;99.60;;;;;;4787716;29;20070;-90
2022/05/23 10:51:45;;;;;;;2.17;0.80;;;25.70;98.80;;;;;;4771505;30;20440;-90
2022/05/23 10:54:30;;;;;;;3.05;0.80;;;25.80;98.60;;;;;;4788025;30;20387;-85
2022/05/23 10:57:25;;;;;;;2.35;1.00;;;26.00;97.90;;;;;;4788065;30;20413;-89
2022/05/23 11:00:08;;;;;;;1.58;0.60;;;26.30;97.60;;;;;;4772114;30;20070;-89
2022/05/23 11:02:51;;;;;;;3.13;1.13;;;26.40;96.40;;;;;;4771522;30;20058;-90
2022/05/23 11:05:48;;;;;;;1.30;0.68;;;26.30;93.90;;;;;;4771295;30;20115;-88
2022/05/23 11:08:25;;;;;;;4.10;0.70;;;26.30;95.00;;;;;;4771798;30;20055;-90
2022/05/23 11:11:17;;;;;;;2.17;0.98;;;26.20;95.60;;;;;;4756477;30;20052;-89
2022/05/23 11:14:14;;;;;;;2.50;0.55;;;26.20;94.80;;;;;;4773057;30;20077;-90
2022/05/23 11:17:22;;;;;;;1.38;0.80;;;26.30;93.90;;;;;;4787594;29;20060;-89
2022/05/23 11:20:12;;;;;;;1.33;0.75;;;26.40;94.40;;;;;;4792034;29;20106;-91
2022/05/23 11:22:45;;;;;;;3.05;0.85;;;26.60;93.70;;;;;;4793906;29;20055;-91
2022/05/23 11:25:32;;;;;;;1.85;0.90;;;26.70;94.10;;;;;;4786573;29;20128;-89
2022/05/23 11:34:35;;;;;;;1.05;0.45;;;27.00;93.40;;;;;;4771440;30;20066;-90
2022/05/23 11:37:42;;;;;;;2.00;0.50;;;27.30;88.30;;;;;;4787459;30;20131;-90
2022/05/23 11:40:08;;;;;;;1.45;0.60;;;27.50;89.50;;;;;;4787919;29;20051;-90
2022/05/23 11:42:59;;;;;;;1.63;0.40;;;27.60;88.50;;;;;;4775539;29;20093;-92
2022/05/23 11:48:35;;;;;;;1.52;0.38;;;27.80;86.10;;;;;;4766976;30;20137;-88
2022/05/23 11:51:22;;;;;;;0.90;0.50;;;28.00;82.70;;;;;;4756540;30;20063;-89
2022/05/23 11:54:00;;;;;;;0.90;0.50;;;28.20;84.30;;;;;;4771124;30;20539;-87
2022/05/23 11:56:40;;;;;;;1.73;0.50;;;28.20;81.70;;;;;;4772927;30;20043;-91
2022/05/23 11:59:09;;;;;;;1.35;0.50;;;28.30;76.20;;;;;;4771728;30;20164;-90
2022/05/23 12:01:35;;;;;;;1.80;0.70;;;28.20;78.10;;;;;;4784072;29;20057;-88
2022/05/23 12:04:01;;;;;;;3.05;0.50;;;28.10;76.80;;;;;;4797876;29;20063;-89
2022/05/23 12:06:27;;;;;;;2.15;0.40;;;27.90;77.00;;;;;;4772255;30;20055;-91
2022/05/23 12:09:01;;;;;;;2.65;0.40;;;27.90;79.20;;;;;;4788476;30;20086;-87
2022/05/23 12:11:36;;;;;;;0.68;0.50;;;27.90;77.30;;;;;;4773160;30;20152;-88
2022/05/23 12:14:26;;;;;;;1.27;0.55;;;27.90;80.00;;;;;;4771035;30;20066;-88
2022/05/23 12:16:55;;;;;;;0.82;0.52;;;28.00;77.20;;;;;;4770937;30;20146;-88
2022/05/23 12:19:38;;;;;;;1.33;0.50;;;28.20;78.90;;;;;;4787756;30;20204;-89
2022/05/23 12:29:32;;;;;;;1.88;0.50;;;28.00;81.90;;;;;;4780675;29;20118;-89
2022/05/23 12:32:16;;;;;;;0.77;0.40;;;28.20;75.70;;;;;;4784152;29;20061;-90
2022/05/23 12:34:47;;;;;;;1.20;0.50;;;28.00;76.70;;;;;;4786969;30;20051;-90
2022/05/23 12:37:29;;;;;;;1.30;0.43;;;28.00;77.40;;;;;;4755243;30;20047;-89
2022/05/23 12:40:06;;;;;;;0.75;0.50;;;27.80;76.50;;;;;;4769467;30;20063;-89
2022/05/23 12:42:55;;;;;;;1.20;0.43;;;27.70;74.60;;;;;;4765600;30;20133;-89
2022/05/23 12:45:54;;;;;;;1.00;0.50;;;27.50;76.00;;;;;;4793992;29;20069;-89
2022/05/23 12:48:35;;;;;;;0.90;0.40;;;27.30;75.20;;;;;;4780428;30;20135;-89
2022/05/23 12:51:13;;;;;;;1.58;0.60;;;27.10;76.80;;;;;;4773403;30;20091;-92
2022/05/23 12:53:57;;;;;;;1.50;0.50;;;27.00;77.90;;;;;;4790331;29;20057;-90
2022/05/23 12:56:42;;;;;;;0.50;0.30;;;27.10;79.00;;;;;;4796611;29;20083;-91
2022/05/23 12:59:35;;;;;;;1.27;0.50;;;26.90;80.40;;;;;;4789961;29;20059;-87
2022/05/23 13:02:07;;;;;;;2.78;0.55;;;26.80;78.40;;;;;;4790148;30;20051;-90
2022/05/23 13:04:48;;;;;;;1.70;0.50;;;26.60;79.30;;;;;;4768296;30;20047;-85
2022/05/23 13:07:46;;;;;;;3.30;0.40;;;26.60;81.40;;;;;;4781775;29;20416;-93
2022/05/23 13:10:37;;;;;;;1.30;0.50;;;26.50;82.90;;;;;;4771423;30;20145;-88
2022/05/23 13:13:08;;;;;;;0.43;0.40;;;26.40;81.90;;;;;;4710957;30;20514;-91
2022/05/23 13:15:35;;;;;;;2.05;0.50;;;26.20;84.80;;;;;;4702600;30;20111;-91
2022/05/23 13:23:35;;;;;;;1.70;0.60;;;26.00;86.30;;;;;;4706641;30;20123;-91
2022/05/23 13:26:10;;;;;;;2.70;0.50;;;26.00;85.30;;;;;;4701588;30;20049;-90
2022/05/23 13:28:43;;;;;;;0.95;0.50;;;25.90;89.40;;;;;;4702158;30;20072;-89
2022/05/23 13:31:26;;;;;;;0.93;0.50;;;25.90;89.70;;;;;;4701826;30;20064;-90
2022/05/23 13:33:55;;;;;;;4.07;0.50;;;25.80;90.50;;;;;;4723258;30;20100;-91
2022/05/23 13:36:23;;;;;;;1.48;0.47;;;25.80;90.00;;;;;;4716099;30;20065;-91
2022/05/23 13:39:03;;;;;;;0.47;0.40;;;25.80;90.30;;;;;;4715547;30;20064;-91
2022/05/23 13:41:30;;;;;;;1.23;0.50;;;25.70;91.40;;;;;;4723645;30;20142;-89
2022/05/23 13:43:56;;;;;;;0.98;0.55;;;25.70;91.50;;;;;;4701970;30;20119;-93
2022/05/23 13:46:37;;;;;;;1.50;0.60;;;25.60;91.50;;;;;;4716499;30;20057;-92
2022/05/23 13:49:27;;;;;;;1.20;0.60;;;25.50;90.20;;;;;;4723393;30;20049;-89
2022/05/23 13:59:04;;;;;;;1.30;0.70;;;25.40;93.10;;;;;;4782936;30;20042;-94
2022/05/23 14:01:42;;;;;;;1.80;0.50;;;25.40;93.00;;;;;;4772449;29;20489;-92
2022/05/23 14:04:14;;;;;;;1.70;0.60;;;25.30;93.80;;;;;;4793096;29;20509;-95
2022/05/23 14:06:52;;;;;;;1.73;0.65;;;25.20;94.80;;;;;;4773378;30;20200;-92
2022/05/23 14:09:18;;;;;;;1.52;0.60;;;25.20;95.80;;;;;;4787700;30;20155;-90
2022/05/23 14:11:52;;;;;;;1.45;0.60;;;25.20;96.90;;;;;;4760024;29;20505;-88
2022/05/23 14:14:39;;;;;;;1.48;0.75;;;25.10;98.00;;;;;;4796660;29;20059;-89
2022/05/23 14:17:18;;;;;;;2.60;0.60;;;25.10;99.60;;;;;;4789072;29;20073;-92
2022/05/23 14:19:50;;;;;;;1.20;0.70;;;24.90;99.90;;;;;;4773049;30;20059;-94
2022/05/23 14:22:31;;;;;;;2.35;0.57;;;24.80;99.90;;;;;;4788682;30;20059;-92
2022/05/23 14:25:00;;;;;;;1.48;0.88;;;24.70;99.90;;;;;;4781779;30;20493;-90
2022/05/23 14:27:34;;;;;;;5.45;0.80;;;24.60;99.90;;;;;;4772055;30;20059;-91
2022/05/23 14:30:11;;;;;;;1.45;0.90;;;24.90;99.90;;;;;;4785435;29;20046;-89